sensor_id;sensor_type;location;lat;lon;timestamp;temperature;humidity
45643;DHT22;31358;46.008;11.144;2023-07-24T00:00:53;21.80;99.90
45643;DHT22;31358;46.008;11.144;2023-07-24T00:03:19;21.80;99.90
45643;DHT22;31358;46.008;11.144;2023-07-24T00:05:44;21.80;99.90
45643;DHT22;31358;46.008;11.144;2023-07-24T00:08:10;21.70;99.90
45643;DHT22;31358;46.008;11.144;2023-07-24T00:10:36;21.70;99.90
45643;DHT22;31358;46.008;11.144;2023-07-24T00:13:01;21.50;99.90
45643;DHT22;31358;46.008;11.144;2023-07-24T00:15:28;21.40;99.90
45643;DHT22;31358;46.008;11.144;2023-07-24T00:17:54;21.50;99.90
45643;DHT22;31358;46.008;11.144;2023-07-24T00:20:19;21.60;99.90
45643;DHT22;31358;46.008;11.144;2023-07-24T00:22:45;21.40;99.90
45643;DHT22;31358;46.008;11.144;2023-07-24T00:25:11;21.50;99.90
45643;DHT22;31358;46.008;11.144;2023-07-24T00:27:37;21.50;99.90
45643;DHT22;31358;46.008;11.144;2023-07-24T00:30:02;21.50;99.90
45643;DHT22;31358;46.008;11.144;2023-07-24T00:32:28;21.50;99.90
45643;DHT22;31358;46.008;11.144;2023-07-24T00:34:54;21.50;99.90
45643;DHT22;31358;46.008;11.144;2023-07-24T00:37:19;21.40;99.90
45643;DHT22;31358;46.008;11.144;2023-07-24T00:39:45;21.50;99.90
45643;DHT22;31358;46.008;11.144;2023-07-24T00:42:10;21.60;99.90
45643;DHT22;31358;46.008;11.144;2023-07-24T00:44:36;21.70;99.90
45643;DHT22;31358;46.008;11.144;2023-07-24T00:47:03;21.70;99.90
45643;DHT22;31358;46.008;11.144;2023-07-24T00:49:29;21.70;99.90
45643;DHT22;31358;46.008;11.144;2023-07-24T00:51:55;21.60;99.90
45643;DHT22;31358;46.008;11.144;2023-07-24T00:54:21;21.70;99.90
45643;DHT22;31358;46.008;11.144;2023-07-24T00:56:47;21.80;99.90
45643;DHT22;31358;46.008;11.144;2023-07-24T00:59:14;21.60;99.90
45643;DHT22;31358;46.008;11.144;2023-07-24T01:01:41;21.50;99.90
45643;DHT22;31358;46.008;11.144;2023-07-24T01:04:07;21.40;99.90
45643;DHT22;31358;46.008;11.144;2023-07-24T01:06:32;21.30;99.90
45643;DHT22;31358;46.008;11.144;2023-07-24T01:08:58;21.30;99.90
45643;DHT22;31358;46.008;11.144;2023-07-24T01:11:28;21.20;99.90
45643;DHT22;31358;46.008;11.144;2023-07-24T01:14:12;21.10;99.90
45643;DHT22;31358;46.008;11.144;2023-07-24T01:16:41;21.10;99.90
45643;DHT22;31358;46.008;11.144;2023-07-24T01:27:49;21.20;99.90
45643;DHT22;31358;46.008;11.144;2023-07-24T01:30:17;21.20;99.90
45643;DHT22;31358;46.008;11.144;2023-07-24T01:32:43;21.20;99.90
45643;DHT22;31358;46.008;11.144;2023-07-24T01:35:09;21.20;99.90
45643;DHT22;31358;46.008;11.144;2023-07-24T01:37:35;21.20;99.90
45643;DHT22;31358;46.008;11.144;2023-07-24T01:40:03;21.20;99.90
45643;DHT22;31358;46.008;11.144;2023-07-24T01:42:29;21.20;99.90
45643;DHT22;31358;46.008;11.144;2023-07-24T01:44:55;21.30;99.90
45643;DHT22;31358;46.008;11.144;2023-07-24T01:47:21;21.30;99.90
45643;DHT22;31358;46.008;11.144;2023-07-24T01:49:47;21.20;99.90
45643;DHT22;31358;46.008;11.144;2023-07-24T01:52:13;21.10;99.90
45643;DHT22;31358;46.008;11.144;2023-07-24T01:54:39;21.00;99.90
45643;DHT22;31358;46.008;11.144;2023-07-24T01:57:05;21.00;99.90
45643;DHT22;31358;46.008;11.144;2023-07-24T01:59:31;20.90;99.90
45643;DHT22;31358;46.008;11.144;2023-07-24T02:01:56;20.90;99.90
45643;DHT22;31358;46.008;11.144;2023-07-24T02:04:22;20.80;99.90
45643;DHT22;31358;46.008;11.144;2023-07-24T02:06:51;20.80;99.90
45643;DHT22;31358;46.008;11.144;2023-07-24T02:09:18;20.90;99.90
45643;DHT22;31358;46.008;11.144;2023-07-24T02:11:44;20.70;99.90
45643;DHT22;31358;46.008;11.144;2023-07-24T02:14:11;20.60;99.90
45643;DHT22;31358;46.008;11.144;2023-07-24T02:16:37;20.60;99.90
45643;DHT22;31358;46.008;11.144;2023-07-24T02:19:02;20.70;99.90
45643;DHT22;31358;46.008;11.144;2023-07-24T02:21:28;20.60;99.90
45643;DHT22;31358;46.008;11.144;2023-07-24T02:23:54;20.70;99.90
45643;DHT22;31358;46.008;11.144;2023-07-24T02:26:19;20.90;99.90
45643;DHT22;31358;46.008;11.144;2023-07-24T02:28:45;21.00;99.90
45643;DHT22;31358;46.008;11.144;2023-07-24T02:31:11;21.10;99.90
45643;DHT22;31358;46.008;11.144;2023-07-24T02:33:37;21.20;99.90
45643;DHT22;31358;46.008;11.144;2023-07-24T02:36:02;21.20;99.90
45643;DHT22;31358;46.008;11.144;2023-07-24T02:38:28;21.10;99.90
45643;DHT22;31358;46.008;11.144;2023-07-24T02:40:54;21.00;99.90
45643;DHT22;31358;46.008;11.144;2023-07-24T02:43:20;20.90;99.90
45643;DHT22;31358;46.008;11.144;2023-07-24T02:45:45;20.80;99.90
45643;DHT22;31358;46.008;11.144;2023-07-24T02:48:11;20.60;99.90
45643;DHT22;31358;46.008;11.144;2023-07-24T02:50:37;20.60;99.90
45643;DHT22;31358;46.008;11.144;2023-07-24T02:53:02;20.60;99.90
45643;DHT22;31358;46.008;11.144;2023-07-24T02:55:28;20.50;99.90
45643;DHT22;31358;46.008;11.144;2023-07-24T02:57:54;20.50;99.90
45643;DHT22;31358;46.008;11.144;2023-07-24T03:00:20;20.50;99.90
45643;DHT22;31358;46.008;11.144;2023-07-24T03:02:45;20.50;99.90
45643;DHT22;31358;46.008;11.144;2023-07-24T03:05:11;20.60;99.90
45643;DHT22;31358;46.008;11.144;2023-07-24T03:07:36;20.50;99.90
45643;DHT22;31358;46.008;11.144;2023-07-24T03:10:03;20.60;99.90
45643;DHT22;31358;46.008;11.144;2023-07-24T03:12:29;20.70;99.90
45643;DHT22;31358;46.008;11.144;2023-07-24T03:14:54;20.60;99.90
45643;DHT22;31358;46.008;11.144;2023-07-24T03:17:21;20.60;99.90
45643;DHT22;31358;46.008;11.144;2023-07-24T03:19:48;20.70;99.90
45643;DHT22;31358;46.008;11.144;2023-07-24T03:22:14;20.80;99.90
45643;DHT22;31358;46.008;11.144;2023-07-24T03:24:40;20.90;99.90
45643;DHT22;31358;46.008;11.144;2023-07-24T03:27:06;20.90;99.90
45643;DHT22;31358;46.008;11.144;2023-07-24T03:29:32;20.90;99.90
45643;DHT22;31358;46.008;11.144;2023-07-24T03:31:57;21.00;99.90
45643;DHT22;31358;46.008;11.144;2023-07-24T03:34:23;21.00;99.90
45643;DHT22;31358;46.008;11.144;2023-07-24T03:36:49;20.80;99.90
45643;DHT22;31358;46.008;11.144;2023-07-24T03:39:14;20.90;99.90
45643;DHT22;31358;46.008;11.144;2023-07-24T03:41:42;20.80;99.90
45643;DHT22;31358;46.008;11.144;2023-07-24T03:44:08;20.80;99.90
45643;DHT22;31358;46.008;11.144;2023-07-24T03:46:34;20.90;99.90
45643;DHT22;31358;46.008;11.144;2023-07-24T03:49:00;20.80;99.90
45643;DHT22;31358;46.008;11.144;2023-07-24T03:51:25;20.50;99.90
45643;DHT22;31358;46.008;11.144;2023-07-24T03:53:51;20.20;99.90
45643;DHT22;31358;46.008;11.144;2023-07-24T03:56:17;20.30;99.90
45643;DHT22;31358;46.008;11.144;2023-07-24T03:58:43;20.40;99.90
45643;DHT22;31358;46.008;11.144;2023-07-24T04:01:09;20.60;99.90
45643;DHT22;31358;46.008;11.144;2023-07-24T04:03:35;20.60;99.90
45643;DHT22;31358;46.008;11.144;2023-07-24T04:06:01;20.70;99.90
45643;DHT22;31358;46.008;11.144;2023-07-24T04:08:27;20.80;99.90
45643;DHT22;31358;46.008;11.144;2023-07-24T04:10:52;20.80;99.90
45643;DHT22;31358;46.008;11.144;2023-07-24T04:13:18;20.80;99.90
45643;DHT22;31358;46.008;11.144;2023-07-24T04:15:44;20.90;99.90
45643;DHT22;31358;46.008;11.144;2023-07-24T04:18:10;20.80;99.90
45643;DHT22;31358;46.008;11.144;2023-07-24T04:20:36;20.60;99.90
45643;DHT22;31358;46.008;11.144;2023-07-24T04:23:02;20.60;99.90
45643;DHT22;31358;46.008;11.144;2023-07-24T04:25:27;20.50;99.90
45643;DHT22;31358;46.008;11.144;2023-07-24T04:27:53;20.50;99.90
45643;DHT22;31358;46.008;11.144;2023-07-24T04:30:19;20.40;99.90
45643;DHT22;31358;46.008;11.144;2023-07-24T04:32:44;20.50;99.90
45643;DHT22;31358;46.008;11.144;2023-07-24T04:35:11;20.50;99.90
45643;DHT22;31358;46.008;11.144;2023-07-24T04:37:37;20.60;99.90
45643;DHT22;31358;46.008;11.144;2023-07-24T04:40:03;20.70;99.90
45643;DHT22;31358;46.008;11.144;2023-07-24T04:42:29;20.80;99.90
45643;DHT22;31358;46.008;11.144;2023-07-24T04:44:54;20.70;99.90
45643;DHT22;31358;46.008;11.144;2023-07-24T04:47:20;20.70;99.90
45643;DHT22;31358;46.008;11.144;2023-07-24T04:49:46;20.80;99.90
45643;DHT22;31358;46.008;11.144;2023-07-24T04:52:11;20.80;99.90
45643;DHT22;31358;46.008;11.144;2023-07-24T04:54:37;20.80;99.90
45643;DHT22;31358;46.008;11.144;2023-07-24T04:57:03;20.80;99.90
45643;DHT22;31358;46.008;11.144;2023-07-24T04:59:28;20.80;99.90
45643;DHT22;31358;46.008;11.144;2023-07-24T05:01:54;20.90;99.90
45643;DHT22;31358;46.008;11.144;2023-07-24T05:04:20;21.00;99.90
45643;DHT22;31358;46.008;11.144;2023-07-24T05:06:45;21.00;99.90
45643;DHT22;31358;46.008;11.144;2023-07-24T05:09:11;21.10;99.90
45643;DHT22;31358;46.008;11.144;2023-07-24T05:11:37;21.00;99.90
45643;DHT22;31358;46.008;11.144;2023-07-24T05:14:02;21.00;99.90
45643;DHT22;31358;46.008;11.144;2023-07-24T05:16:28;20.90;99.90
45643;DHT22;31358;46.008;11.144;2023-07-24T05:18:53;21.00;99.90
45643;DHT22;31358;46.008;11.144;2023-07-24T05:21:19;21.00;99.90
45643;DHT22;31358;46.008;11.144;2023-07-24T05:23:45;21.00;99.90
45643;DHT22;31358;46.008;11.144;2023-07-24T05:26:10;20.90;99.90
45643;DHT22;31358;46.008;11.144;2023-07-24T05:28:36;21.00;99.90
45643;DHT22;31358;46.008;11.144;2023-07-24T05:31:03;21.10;99.90
45643;DHT22;31358;46.008;11.144;2023-07-24T05:33:29;21.20;99.90
45643;DHT22;31358;46.008;11.144;2023-07-24T05:35:59;21.10;99.90
45643;DHT22;31358;46.008;11.144;2023-07-24T05:38:25;20.90;99.90
45643;DHT22;31358;46.008;11.144;2023-07-24T05:40:58;20.80;99.90
45643;DHT22;31358;46.008;11.144;2023-07-24T05:43:24;21.00;99.90
45643;DHT22;31358;46.008;11.144;2023-07-24T05:45:51;21.20;99.90
45643;DHT22;31358;46.008;11.144;2023-07-24T05:48:17;21.30;99.90
45643;DHT22;31358;46.008;11.144;2023-07-24T05:50:43;21.40;99.90
45643;DHT22;31358;46.008;11.144;2023-07-24T05:53:08;21.30;99.90
45643;DHT22;31358;46.008;11.144;2023-07-24T05:55:34;21.30;99.90
45643;DHT22;31358;46.008;11.144;2023-07-24T05:57:59;21.30;99.90
45643;DHT22;31358;46.008;11.144;2023-07-24T06:00:25;21.50;99.90
45643;DHT22;31358;46.008;11.144;2023-07-24T06:02:51;21.70;99.90
45643;DHT22;31358;46.008;11.144;2023-07-24T06:05:16;21.80;99.90
45643;DHT22;31358;46.008;11.144;2023-07-24T06:07:42;21.70;99.90
45643;DHT22;31358;46.008;11.144;2023-07-24T06:10:08;21.60;99.90
45643;DHT22;31358;46.008;11.144;2023-07-24T06:12:33;21.40;99.90
45643;DHT22;31358;46.008;11.144;2023-07-24T06:14:59;21.20;99.90
45643;DHT22;31358;46.008;11.144;2023-07-24T06:17:25;21.50;99.90
45643;DHT22;31358;46.008;11.144;2023-07-24T06:19:50;21.70;99.90
45643;DHT22;31358;46.008;11.144;2023-07-24T06:22:16;21.80;99.90
45643;DHT22;31358;46.008;11.144;2023-07-24T06:24:42;21.60;99.90
45643;DHT22;31358;46.008;11.144;2023-07-24T06:27:07;21.30;99.90
45643;DHT22;31358;46.008;11.144;2023-07-24T06:29:33;21.30;99.90
45643;DHT22;31358;46.008;11.144;2023-07-24T06:31:59;21.10;99.90
45643;DHT22;31358;46.008;11.144;2023-07-24T06:34:24;21.30;99.90
45643;DHT22;31358;46.008;11.144;2023-07-24T06:36:50;21.60;99.90
45643;DHT22;31358;46.008;11.144;2023-07-24T06:39:16;21.60;99.90
45643;DHT22;31358;46.008;11.144;2023-07-24T06:41:42;21.60;99.90
45643;DHT22;31358;46.008;11.144;2023-07-24T06:44:07;21.50;99.90
45643;DHT22;31358;46.008;11.144;2023-07-24T06:46:33;21.60;99.90
45643;DHT22;31358;46.008;11.144;2023-07-24T06:48:59;21.70;99.90
45643;DHT22;31358;46.008;11.144;2023-07-24T06:51:24;21.90;99.90
45643;DHT22;31358;46.008;11.144;2023-07-24T06:53:50;22.00;99.90
45643;DHT22;31358;46.008;11.144;2023-07-24T06:56:16;22.00;99.90
45643;DHT22;31358;46.008;11.144;2023-07-24T06:58:41;22.20;99.90
45643;DHT22;31358;46.008;11.144;2023-07-24T07:01:07;22.50;99.90
45643;DHT22;31358;46.008;11.144;2023-07-24T07:03:33;22.40;99.90
45643;DHT22;31358;46.008;11.144;2023-07-24T07:06:02;22.40;99.90
45643;DHT22;31358;46.008;11.144;2023-07-24T07:08:29;22.50;99.90
45643;DHT22;31358;46.008;11.144;2023-07-24T07:11:00;22.70;99.90
45643;DHT22;31358;46.008;11.144;2023-07-24T07:13:26;22.80;99.90
45643;DHT22;31358;46.008;11.144;2023-07-24T07:15:52;22.90;99.90
45643;DHT22;31358;46.008;11.144;2023-07-24T07:18:17;23.20;99.90
45643;DHT22;31358;46.008;11.144;2023-07-24T07:20:51;23.50;99.90
45643;DHT22;31358;46.008;11.144;2023-07-24T07:23:17;23.50;99.90
45643;DHT22;31358;46.008;11.144;2023-07-24T07:25:43;23.50;99.90
45643;DHT22;31358;46.008;11.144;2023-07-24T07:28:11;23.60;99.90
45643;DHT22;31358;46.008;11.144;2023-07-24T07:30:37;24.20;99.90
45643;DHT22;31358;46.008;11.144;2023-07-24T07:33:02;24.20;99.90
45643;DHT22;31358;46.008;11.144;2023-07-24T07:35:29;24.60;99.90
45643;DHT22;31358;46.008;11.144;2023-07-24T07:37:55;24.20;99.90
45643;DHT22;31358;46.008;11.144;2023-07-24T07:40:20;23.90;99.90
45643;DHT22;31358;46.008;11.144;2023-07-24T07:42:48;23.90;99.90
45643;DHT22;31358;46.008;11.144;2023-07-24T07:45:14;25.00;99.90
45643;DHT22;31358;46.008;11.144;2023-07-24T07:47:40;24.60;99.90
45643;DHT22;31358;46.008;11.144;2023-07-24T07:50:06;24.00;99.90
45643;DHT22;31358;46.008;11.144;2023-07-24T07:52:32;23.40;99.90
45643;DHT22;31358;46.008;11.144;2023-07-24T07:54:58;23.30;99.90
45643;DHT22;31358;46.008;11.144;2023-07-24T07:57:23;23.40;99.90
45643;DHT22;31358;46.008;11.144;2023-07-24T07:59:49;23.20;99.90
45643;DHT22;31358;46.008;11.144;2023-07-24T08:02:15;23.10;99.90
45643;DHT22;31358;46.008;11.144;2023-07-24T08:04:41;23.10;99.90
45643;DHT22;31358;46.008;11.144;2023-07-24T08:07:09;23.00;99.90
45643;DHT22;31358;46.008;11.144;2023-07-24T08:09:34;22.90;99.90
45643;DHT22;31358;46.008;11.144;2023-07-24T08:12:04;24.30;99.90
45643;DHT22;31358;46.008;11.144;2023-07-24T08:14:30;24.60;99.90
45643;DHT22;31358;46.008;11.144;2023-07-24T08:16:56;25.00;99.90
45643;DHT22;31358;46.008;11.144;2023-07-24T08:19:22;25.90;99.90
45643;DHT22;31358;46.008;11.144;2023-07-24T08:21:47;26.60;99.90
45643;DHT22;31358;46.008;11.144;2023-07-24T08:24:13;26.80;99.90
45643;DHT22;31358;46.008;11.144;2023-07-24T08:26:39;27.20;99.90
45643;DHT22;31358;46.008;11.144;2023-07-24T08:29:05;26.30;99.90
45643;DHT22;31358;46.008;11.144;2023-07-24T08:31:31;25.70;99.90
45643;DHT22;31358;46.008;11.144;2023-07-24T08:33:57;25.00;99.90
45643;DHT22;31358;46.008;11.144;2023-07-24T08:36:22;24.80;99.90
45643;DHT22;31358;46.008;11.144;2023-07-24T08:38:48;24.50;99.90
45643;DHT22;31358;46.008;11.144;2023-07-24T08:41:14;24.20;99.90
45643;DHT22;31358;46.008;11.144;2023-07-24T08:43:42;23.90;99.90
45643;DHT22;31358;46.008;11.144;2023-07-24T08:46:08;23.60;99.90
45643;DHT22;31358;46.008;11.144;2023-07-24T08:48:37;23.40;99.90
45643;DHT22;31358;46.008;11.144;2023-07-24T08:51:07;23.20;99.90
45643;DHT22;31358;46.008;11.144;2023-07-24T08:53:34;22.90;99.90
45643;DHT22;31358;46.008;11.144;2023-07-24T08:56:02;22.70;99.90
45643;DHT22;31358;46.008;11.144;2023-07-24T08:58:28;22.10;99.90
45643;DHT22;31358;46.008;11.144;2023-07-24T09:00:55;21.80;99.90
45643;DHT22;31358;46.008;11.144;2023-07-24T09:03:21;21.90;99.90
45643;DHT22;31358;46.008;11.144;2023-07-24T09:05:47;21.90;99.90
45643;DHT22;31358;46.008;11.144;2023-07-24T09:08:13;21.90;99.90
45643;DHT22;31358;46.008;11.144;2023-07-24T09:10:39;21.90;99.90
45643;DHT22;31358;46.008;11.144;2023-07-24T09:13:06;22.00;99.90
45643;DHT22;31358;46.008;11.144;2023-07-24T09:15:44;22.20;99.90
45643;DHT22;31358;46.008;11.144;2023-07-24T09:18:10;22.30;99.90
45643;DHT22;31358;46.008;11.144;2023-07-24T09:20:40;22.10;99.90
45643;DHT22;31358;46.008;11.144;2023-07-24T09:23:07;22.30;99.90
45643;DHT22;31358;46.008;11.144;2023-07-24T09:25:35;22.60;99.90
45643;DHT22;31358;46.008;11.144;2023-07-24T09:28:08;22.70;99.90
45643;DHT22;31358;46.008;11.144;2023-07-24T09:30:34;22.60;99.90
45643;DHT22;31358;46.008;11.144;2023-07-24T09:33:00;22.30;99.90
45643;DHT22;31358;46.008;11.144;2023-07-24T09:35:25;22.00;99.90
45643;DHT22;31358;46.008;11.144;2023-07-24T09:38:13;22.10;99.90
45643;DHT22;31358;46.008;11.144;2023-07-24T09:40:44;22.20;99.90
45643;DHT22;31358;46.008;11.144;2023-07-24T09:43:21;21.80;99.90
45643;DHT22;31358;46.008;11.144;2023-07-24T09:45:48;21.40;99.90
45643;DHT22;31358;46.008;11.144;2023-07-24T09:48:16;21.20;99.90
45643;DHT22;31358;46.008;11.144;2023-07-24T09:50:43;21.60;99.90
45643;DHT22;31358;46.008;11.144;2023-07-24T09:53:29;22.10;99.90
45643;DHT22;31358;46.008;11.144;2023-07-24T09:58:27;23.00;99.90
45643;DHT22;31358;46.008;11.144;2023-07-24T10:00:53;23.00;99.90
45643;DHT22;31358;46.008;11.144;2023-07-24T10:03:20;22.80;99.90
45643;DHT22;31358;46.008;11.144;2023-07-24T10:05:48;22.90;99.90
45643;DHT22;31358;46.008;11.144;2023-07-24T10:08:18;23.20;99.90
45643;DHT22;31358;46.008;11.144;2023-07-24T10:10:44;23.60;99.90
45643;DHT22;31358;46.008;11.144;2023-07-24T10:13:12;23.90;99.90
45643;DHT22;31358;46.008;11.144;2023-07-24T10:15:41;23.60;99.90
45643;DHT22;31358;46.008;11.144;2023-07-24T10:18:08;23.00;99.90
45643;DHT22;31358;46.008;11.144;2023-07-24T10:20:36;22.40;99.90
45643;DHT22;31358;46.008;11.144;2023-07-24T10:23:02;22.50;99.90
45643;DHT22;31358;46.008;11.144;2023-07-24T10:25:36;22.40;99.90
45643;DHT22;31358;46.008;11.144;2023-07-24T10:30:32;22.10;99.90
45643;DHT22;31358;46.008;11.144;2023-07-24T10:35:55;21.90;99.90
45643;DHT22;31358;46.008;11.144;2023-07-24T10:38:36;22.00;99.90
45643;DHT22;31358;46.008;11.144;2023-07-24T10:41:03;21.80;99.90
45643;DHT22;31358;46.008;11.144;2023-07-24T10:43:29;21.50;99.90
45643;DHT22;31358;46.008;11.144;2023-07-24T10:46:04;21.40;99.90
45643;DHT22;31358;46.008;11.144;2023-07-24T10:48:30;21.50;99.90
45643;DHT22;31358;46.008;11.144;2023-07-24T10:50:56;21.40;99.90
45643;DHT22;31358;46.008;11.144;2023-07-24T10:53:22;21.40;99.90
45643;DHT22;31358;46.008;11.144;2023-07-24T10:55:48;21.40;99.90
45643;DHT22;31358;46.008;11.144;2023-07-24T10:58:15;21.40;99.90
45643;DHT22;31358;46.008;11.144;2023-07-24T11:00:42;21.40;99.90
45643;DHT22;31358;46.008;11.144;2023-07-24T11:03:10;21.30;99.90
45643;DHT22;31358;46.008;11.144;2023-07-24T11:05:45;21.20;99.90
45643;DHT22;31358;46.008;11.144;2023-07-24T11:08:13;21.30;99.90
45643;DHT22;31358;46.008;11.144;2023-07-24T11:11:08;21.50;99.90
45643;DHT22;31358;46.008;11.144;2023-07-24T11:13:34;21.90;99.90
45643;DHT22;31358;46.008;11.144;2023-07-24T11:16:07;22.10;99.90
45643;DHT22;31358;46.008;11.144;2023-07-24T11:18:43;22.50;99.90
45643;DHT22;31358;46.008;11.144;2023-07-24T11:21:09;22.70;99.90
45643;DHT22;31358;46.008;11.144;2023-07-24T11:23:35;22.80;99.90
45643;DHT22;31358;46.008;11.144;2023-07-24T11:26:01;22.70;99.90
45643;DHT22;31358;46.008;11.144;2023-07-24T11:28:39;22.40;99.90
45643;DHT22;31358;46.008;11.144;2023-07-24T11:31:04;22.10;99.90
45643;DHT22;31358;46.008;11.144;2023-07-24T11:33:30;21.80;99.90
45643;DHT22;31358;46.008;11.144;2023-07-24T11:35:56;21.80;99.90
45643;DHT22;31358;46.008;11.144;2023-07-24T11:38:22;21.80;99.90
45643;DHT22;31358;46.008;11.144;2023-07-24T11:40:49;21.90;99.90
45643;DHT22;31358;46.008;11.144;2023-07-24T11:43:20;21.90;99.90
45643;DHT22;31358;46.008;11.144;2023-07-24T11:45:47;21.90;99.90
45643;DHT22;31358;46.008;11.144;2023-07-24T11:48:23;22.10;99.90
45643;DHT22;31358;46.008;11.144;2023-07-24T11:50:52;22.20;99.90
45643;DHT22;31358;46.008;11.144;2023-07-24T11:53:29;22.30;99.90
45643;DHT22;31358;46.008;11.144;2023-07-24T11:55:59;22.40;99.90
45643;DHT22;31358;46.008;11.144;2023-07-24T11:58:27;22.40;99.90
45643;DHT22;31358;46.008;11.144;2023-07-24T12:00:54;22.20;99.90
45643;DHT22;31358;46.008;11.144;2023-07-24T12:03:21;22.10;99.90
45643;DHT22;31358;46.008;11.144;2023-07-24T12:05:47;22.50;99.90
45643;DHT22;31358;46.008;11.144;2023-07-24T12:08:13;22.40;99.90
45643;DHT22;31358;46.008;11.144;2023-07-24T12:10:43;22.30;99.90
45643;DHT22;31358;46.008;11.144;2023-07-24T12:13:09;22.00;99.90
45643;DHT22;31358;46.008;11.144;2023-07-24T12:15:35;22.00;99.90
45643;DHT22;31358;46.008;11.144;2023-07-24T12:18:02;22.00;99.90
45643;DHT22;31358;46.008;11.144;2023-07-24T12:20:28;22.00;99.90
45643;DHT22;31358;46.008;11.144;2023-07-24T12:22:54;22.00;99.90
45643;DHT22;31358;46.008;11.144;2023-07-24T12:25:20;22.30;99.90
45643;DHT22;31358;46.008;11.144;2023-07-24T12:27:47;22.30;99.90
45643;DHT22;31358;46.008;11.144;2023-07-24T12:30:12;22.10;99.90
45643;DHT22;31358;46.008;11.144;2023-07-24T12:32:38;22.20;99.90
45643;DHT22;31358;46.008;11.144;2023-07-24T12:35:04;22.30;99.90
45643;DHT22;31358;46.008;11.144;2023-07-24T12:37:30;22.20;99.90
45643;DHT22;31358;46.008;11.144;2023-07-24T12:39:56;22.10;99.90
45643;DHT22;31358;46.008;11.144;2023-07-24T12:42:22;22.10;99.90
45643;DHT22;31358;46.008;11.144;2023-07-24T12:44:48;22.20;99.90
45643;DHT22;31358;46.008;11.144;2023-07-24T12:47:14;22.20;99.90
45643;DHT22;31358;46.008;11.144;2023-07-24T12:49:40;22.20;99.90
45643;DHT22;31358;46.008;11.144;2023-07-24T12:52:06;22.10;99.90
45643;DHT22;31358;46.008;11.144;2023-07-24T12:54:32;22.00;99.90
45643;DHT22;31358;46.008;11.144;2023-07-24T12:56:58;21.90;99.90
45643;DHT22;31358;46.008;11.144;2023-07-24T12:59:24;21.80;99.90
45643;DHT22;31358;46.008;11.144;2023-07-24T13:01:49;21.60;99.90
45643;DHT22;31358;46.008;11.144;2023-07-24T13:04:15;21.60;99.90
45643;DHT22;31358;46.008;11.144;2023-07-24T13:06:41;21.60;99.90
45643;DHT22;31358;46.008;11.144;2023-07-24T13:09:07;21.70;99.90
45643;DHT22;31358;46.008;11.144;2023-07-24T13:11:33;21.60;99.90
45643;DHT22;31358;46.008;11.144;2023-07-24T13:13:59;21.50;99.90
45643;DHT22;31358;46.008;11.144;2023-07-24T13:16:25;21.60;99.90
45643;DHT22;31358;46.008;11.144;2023-07-24T13:18:50;21.50;99.90
45643;DHT22;31358;46.008;11.144;2023-07-24T13:21:16;21.40;99.90
45643;DHT22;31358;46.008;11.144;2023-07-24T13:23:42;21.30;99.90
45643;DHT22;31358;46.008;11.144;2023-07-24T13:26:08;21.30;99.90
45643;DHT22;31358;46.008;11.144;2023-07-24T13:28:39;21.30;99.90
45643;DHT22;31358;46.008;11.144;2023-07-24T13:31:15;21.30;99.90
45643;DHT22;31358;46.008;11.144;2023-07-24T13:33:41;21.10;99.90
45643;DHT22;31358;46.008;11.144;2023-07-24T13:36:07;20.80;99.90
45643;DHT22;31358;46.008;11.144;2023-07-24T13:38:33;20.40;99.90
45643;DHT22;31358;46.008;11.144;2023-07-24T13:40:59;20.40;99.90
45643;DHT22;31358;46.008;11.144;2023-07-24T13:43:25;20.60;99.90
45643;DHT22;31358;46.008;11.144;2023-07-24T13:45:51;20.70;99.90
45643;DHT22;31358;46.008;11.144;2023-07-24T13:48:16;20.80;99.90
45643;DHT22;31358;46.008;11.144;2023-07-24T13:50:42;20.90;99.90
45643;DHT22;31358;46.008;11.144;2023-07-24T13:53:07;21.00;99.90
45643;DHT22;31358;46.008;11.144;2023-07-24T13:55:33;21.10;99.90
45643;DHT22;31358;46.008;11.144;2023-07-24T13:57:59;21.00;99.90
45643;DHT22;31358;46.008;11.144;2023-07-24T14:00:25;21.10;99.90
45643;DHT22;31358;46.008;11.144;2023-07-24T14:02:51;21.20;99.90
45643;DHT22;31358;46.008;11.144;2023-07-24T14:05:17;21.30;99.90
45643;DHT22;31358;46.008;11.144;2023-07-24T14:07:43;21.30;99.90
45643;DHT22;31358;46.008;11.144;2023-07-24T14:10:10;21.50;99.90
45643;DHT22;31358;46.008;11.144;2023-07-24T14:12:36;21.80;99.90
45643;DHT22;31358;46.008;11.144;2023-07-24T14:15:02;21.90;99.90
45643;DHT22;31358;46.008;11.144;2023-07-24T14:17:28;21.80;99.90
45643;DHT22;31358;46.008;11.144;2023-07-24T14:19:54;21.90;99.90
45643;DHT22;31358;46.008;11.144;2023-07-24T14:22:19;21.90;99.90
45643;DHT22;31358;46.008;11.144;2023-07-24T14:24:45;21.60;99.90
45643;DHT22;31358;46.008;11.144;2023-07-24T14:27:12;21.80;99.90
45643;DHT22;31358;46.008;11.144;2023-07-24T14:29:38;21.80;99.90
45643;DHT22;31358;46.008;11.144;2023-07-24T14:32:05;21.80;99.90
45643;DHT22;31358;46.008;11.144;2023-07-24T14:34:30;21.80;99.90
45643;DHT22;31358;46.008;11.144;2023-07-24T14:36:56;21.70;99.90
45643;DHT22;31358;46.008;11.144;2023-07-24T14:39:22;21.80;99.90
45643;DHT22;31358;46.008;11.144;2023-07-24T14:41:47;21.90;99.90
45643;DHT22;31358;46.008;11.144;2023-07-24T14:44:13;21.80;99.90
45643;DHT22;31358;46.008;11.144;2023-07-24T14:46:39;22.10;99.90
45643;DHT22;31358;46.008;11.144;2023-07-24T14:49:04;22.60;99.90
45643;DHT22;31358;46.008;11.144;2023-07-24T14:51:30;23.00;99.90
45643;DHT22;31358;46.008;11.144;2023-07-24T14:53:56;23.40;99.90
45643;DHT22;31358;46.008;11.144;2023-07-24T14:56:21;23.20;99.90
45643;DHT22;31358;46.008;11.144;2023-07-24T14:58:47;23.10;99.90
45643;DHT22;31358;46.008;11.144;2023-07-24T15:01:13;22.80;99.90
45643;DHT22;31358;46.008;11.144;2023-07-24T15:03:39;22.60;99.90
45643;DHT22;31358;46.008;11.144;2023-07-24T15:06:04;22.50;99.90
45643;DHT22;31358;46.008;11.144;2023-07-24T15:08:35;22.70;99.90
45643;DHT22;31358;46.008;11.144;2023-07-24T15:11:00;22.80;99.90
45643;DHT22;31358;46.008;11.144;2023-07-24T15:13:26;23.20;99.90
45643;DHT22;31358;46.008;11.144;2023-07-24T15:15:52;23.50;99.90
45643;DHT22;31358;46.008;11.144;2023-07-24T15:18:17;23.70;99.90
45643;DHT22;31358;46.008;11.144;2023-07-24T15:20:43;23.80;99.90
45643;DHT22;31358;46.008;11.144;2023-07-24T15:23:10;24.00;99.90
45643;DHT22;31358;46.008;11.144;2023-07-24T15:25:35;24.00;99.90
45643;DHT22;31358;46.008;11.144;2023-07-24T15:28:01;23.50;99.90